Sarasota, FL

18:49 EDT le 25 octobre 2014 (GMT -0400)
THE MEADOWS | Change Station
CLOSE
Current Station
Stations météorologiques personnelles
Location: Sarasota, FL
Altitude: 39 ft
Stations météo à proximité

Alt. 39 ft 27.36 °N, 82.47 °W | Updated 1 minute ago

Ciel dégagé
Ciel dégagé
72.4 ° F
Paraît 76 ° F
N
0.0
Vent Variable Vent de SSO
Gusts 0.0 mph

Aujourd'hui
Haut(e) -- | Bas -- ° F
--% Risque de précip.
Hier
Haut(e) -- | Bas -- ° F
Precip. -- pouce
7:35 AM 6:51 PM
Lune montante, 4% visible
Pression 29.93 pouce
Visibilité 10.0 Miles terrestres
Nuages Ciel dégagé
indice de chaleur 76 ° F
Point de rosée 57 ° F
Humidité 58%
Précipitations 0.00 pouce
Profondeur de la couche neigeuse Non disponible.
UV 1 sur 12
Pollen 6.00 sur 12
Qualité de l'air Non disponible.
Flu Activity Local Activity
METAR KSRQ 252153Z AUTO 33008KT 10SM CLR 24/12 A2993 RMK AO2 SLP135 T02440122

More Conditions Fewer Conditions

Pression 29.93 pouce
Visibilité 10.0 Miles terrestres
Nuages Ciel dégagé
indice de chaleur 76 ° F
Point de rosée 57 ° F
Humidité 58%
Précipitations 0.00 pouce
Profondeur de la couche neigeuse Non disponible.
UV 1 sur 12
Pollen 6.00 sur 12
Qualité de l'air Non disponible.
Flu Activity Local Activity
METAR KSRQ 252153Z AUTO 33008KT 10SM CLR 24/12 A2993 RMK AO2 SLP135 T02440122

More Conditions Fewer Conditions

10-Day Weather Forecast

Almanac

Astronomie

Oct. 25, 2014 Lever Coucher
Temps réel 07:35 EDT 18:51 EDT
Crépuscule civil 07:11 EDT 19:15 EDT
Crépuscule nautique 06:44 EDT 19:43 EDT
Crépuscule astronomique 06:17 EDT 20:10 EDT
Lune 09:07 EDT 20:21 EDT
Durée de lumière visible 12h 03m
Longueur du jour
11h 16m
Tomorrow will be 1m 28s shorter.
Lune montante, 4% of the Moon is Illuminated
Aujourd'hui
Lune montante
Oct 30
Premier quartier
Nov 6
Pleine lune
Nov 14
Dernier quartier
Nov 22
Nouveau

Extrêmes aujourd'hui

State Highs State Lows

Community

WunderPhotos

Upload Photos

1,765,016 Photos téléchargées !

Nearby

Épaisseur de neige

Station Depth Altitude
Pas de nouvelles chutes de neige

Activité sismique

Ville Distance Mag. Time & Date
No recent earthquake activity has been reported nearby.
Minimum magnitude displayed is 2.5.

Températures des eaux côtières

Lieu Température
Clearwater Beach, FL 73.9 ° F
Port Manatee, FL 78.1 ° F
St Petersburg, FL 80.1 ° F
Old Port Tampa, FL 75.9 ° F
McKay Bay Entrance, FL 79.0 ° F

Stations météo à proximité